createdAt,value
2023-12-22T00:00:02.504Z,15.75
2023-12-22T00:02:30.364Z,15.81
2023-12-22T00:04:58.228Z,15.84
2023-12-22T00:07:26.117Z,15.84
2023-12-22T00:09:53.960Z,15.85
2023-12-22T00:12:23.159Z,15.82
2023-12-22T00:14:51.193Z,15.82
2023-12-22T00:17:19.019Z,15.86
2023-12-22T00:19:46.969Z,15.86
2023-12-22T00:22:14.997Z,15.80
2023-12-22T00:24:42.791Z,15.81
2023-12-22T00:27:10.676Z,15.73
2023-12-22T00:29:39.889Z,15.65
2023-12-22T00:32:10.764Z,15.66
2023-12-22T00:34:38.763Z,15.64
2023-12-22T00:37:06.642Z,15.64
2023-12-22T00:39:34.594Z,15.65
2023-12-22T00:42:02.503Z,15.67
2023-12-22T00:44:30.713Z,15.70
2023-12-22T00:46:59.946Z,15.77
2023-12-22T00:49:27.858Z,15.81
2023-12-22T00:51:55.698Z,15.83
2023-12-22T00:54:23.539Z,15.82
2023-12-22T00:56:51.735Z,15.81
2023-12-22T00:59:20.235Z,15.77
2023-12-22T01:01:48.263Z,15.76
2023-12-22T01:04:17.527Z,15.73
2023-12-22T01:06:45.476Z,15.74
2023-12-22T01:09:13.428Z,15.72
2023-12-22T01:11:41.222Z,15.61
2023-12-22T01:14:09.100Z,15.56
2023-12-22T01:16:37.014Z,15.58
2023-12-22T01:19:04.942Z,15.63
2023-12-22T01:21:34.193Z,15.61
2023-12-22T01:24:02.083Z,15.61
2023-12-22T01:26:29.979Z,15.51
2023-12-22T01:28:57.892Z,15.40
2023-12-22T01:31:25.869Z,15.44
2023-12-22T01:33:53.767Z,15.42
2023-12-22T01:36:21.594Z,15.44
2023-12-22T01:38:50.790Z,15.38
2023-12-22T01:41:18.632Z,15.41
2023-12-22T01:43:46.467Z,15.44
2023-12-22T01:46:14.335Z,15.49
2023-12-22T01:48:42.268Z,15.47
2023-12-22T01:51:10.121Z,15.44
2023-12-22T01:53:39.972Z,15.34
2023-12-22T01:56:09.684Z,15.35
2023-12-22T01:58:37.542Z,15.33
2023-12-22T02:01:05.637Z,15.37
2023-12-22T02:03:33.558Z,15.41
2023-12-22T02:06:01.597Z,15.34
2023-12-22T02:08:29.439Z,15.31
2023-12-22T02:10:57.283Z,15.35
2023-12-22T02:13:26.560Z,15.28
2023-12-22T02:15:58.051Z,15.19
2023-12-22T02:18:28.268Z,15.18
2023-12-22T02:20:56.085Z,15.11
2023-12-22T02:23:25.269Z,15.17
2023-12-22T02:25:53.857Z,15.19
2023-12-22T02:28:21.817Z,15.26
2023-12-22T02:30:52.239Z,15.27
2023-12-22T02:33:20.095Z,15.19
2023-12-22T02:35:47.939Z,15.12
2023-12-22T02:38:15.774Z,15.08
2023-12-22T02:40:44.997Z,15.11
2023-12-22T02:43:11.929Z,15.04
2023-12-22T02:45:39.763Z,14.93
2023-12-22T02:48:08.305Z,14.93
2023-12-22T02:50:36.342Z,14.86
2023-12-22T02:53:04.368Z,14.82
2023-12-22T02:55:32.245Z,14.85
2023-12-22T02:58:01.424Z,14.88
2023-12-22T03:00:29.261Z,14.90
2023-12-22T03:02:57.117Z,14.92
2023-12-22T03:05:24.976Z,14.86
2023-12-22T03:07:53.200Z,14.80
2023-12-22T03:10:21.160Z,14.76
2023-12-22T03:12:49.004Z,14.76
2023-12-22T03:15:18.196Z,14.78
2023-12-22T03:17:46.138Z,14.74
2023-12-22T03:20:14.136Z,14.79
2023-12-22T03:22:41.989Z,14.81
2023-12-22T03:25:10.087Z,14.84
2023-12-22T03:27:38.029Z,14.84
2023-12-22T03:30:06.841Z,14.85
2023-12-22T03:32:36.109Z,14.76
2023-12-22T03:35:04.122Z,14.79
2023-12-22T03:37:32.039Z,14.81
2023-12-22T03:39:59.923Z,14.88
2023-12-22T03:42:27.722Z,14.90
2023-12-22T03:44:55.581Z,14.86
2023-12-22T03:47:23.554Z,14.83
2023-12-22T03:49:52.774Z,14.88
2023-12-22T03:52:20.743Z,14.89
2023-12-22T03:54:48.609Z,14.88
2023-12-22T03:57:16.403Z,14.81
2023-12-22T03:59:44.696Z,14.70
2023-12-22T04:02:12.693Z,14.74
2023-12-22T04:04:40.635Z,14.74
2023-12-22T04:07:09.918Z,14.69
2023-12-22T04:09:39.056Z,14.69
2023-12-22T04:12:07.627Z,14.61
2023-12-22T04:14:35.633Z,14.63
2023-12-22T04:17:03.543Z,14.66
2023-12-22T04:19:31.462Z,14.69
2023-12-22T04:21:59.344Z,14.68
2023-12-22T04:24:28.523Z,14.69
2023-12-22T04:26:56.332Z,14.65
2023-12-22T04:29:24.137Z,14.63
2023-12-22T04:31:51.970Z,14.54
2023-12-22T04:34:19.806Z,14.59
2023-12-22T04:36:48.113Z,14.67
2023-12-22T04:39:15.956Z,14.69
2023-12-22T04:41:45.172Z,14.65
2023-12-22T04:44:12.970Z,14.69
2023-12-22T04:46:40.814Z,14.69
2023-12-22T04:49:08.903Z,14.72
2023-12-22T04:51:36.825Z,14.70
2023-12-22T04:54:04.835Z,14.68
2023-12-22T04:56:33.378Z,14.62
2023-12-22T04:59:02.631Z,14.66
2023-12-22T05:01:30.560Z,14.79
2023-12-22T05:03:58.459Z,14.86
2023-12-22T05:06:26.285Z,14.76
2023-12-22T05:08:54.088Z,14.72
2023-12-22T05:11:22.026Z,14.73
2023-12-22T05:13:49.966Z,14.70
2023-12-22T05:16:19.334Z,14.66
2023-12-22T05:18:47.177Z,14.64
2023-12-22T05:21:16.102Z,14.67
2023-12-22T05:23:44.147Z,14.62
2023-12-22T05:26:11.967Z,14.54
2023-12-22T05:28:39.885Z,14.63
2023-12-22T05:31:07.708Z,14.71
2023-12-22T05:33:36.876Z,14.75
2023-12-22T05:36:05.194Z,14.74
2023-12-22T05:38:33.019Z,14.81
2023-12-22T05:41:00.899Z,14.82
2023-12-22T05:43:28.757Z,14.81
2023-12-22T05:45:56.549Z,14.75
2023-12-22T05:48:24.442Z,14.81
2023-12-22T05:50:53.642Z,14.81
2023-12-22T05:53:21.443Z,14.85
2023-12-22T05:55:49.931Z,14.82
2023-12-22T05:58:17.782Z,14.81
2023-12-22T06:00:45.611Z,14.82
2023-12-22T06:03:13.587Z,14.82
2023-12-22T06:05:41.540Z,14.76
2023-12-22T06:08:11.428Z,14.75
2023-12-22T06:10:39.358Z,14.71
2023-12-22T06:13:07.598Z,14.70
2023-12-22T06:15:35.463Z,14.72
2023-12-22T06:18:03.374Z,14.73
2023-12-22T06:20:31.230Z,14.71
2023-12-22T06:22:59.148Z,14.74
2023-12-22T06:25:28.557Z,14.84
2023-12-22T06:27:56.365Z,14.82
2023-12-22T06:30:25.540Z,14.79
2023-12-22T06:32:53.597Z,14.79
2023-12-22T06:35:24.778Z,14.88
2023-12-22T06:37:53.064Z,14.84
2023-12-22T06:40:21.378Z,14.73
2023-12-22T06:42:50.572Z,14.65
2023-12-22T06:45:18.375Z,14.63
2023-12-22T06:47:46.289Z,14.71
2023-12-22T06:50:14.404Z,14.80
2023-12-22T06:52:42.388Z,14.80
2023-12-22T06:55:10.904Z,14.89
2023-12-22T06:57:40.315Z,14.86
2023-12-22T07:00:11.486Z,14.80
2023-12-22T07:02:39.498Z,14.80
2023-12-22T07:05:32.467Z,14.82
2023-12-22T07:08:00.305Z,14.83
2023-12-22T07:10:28.136Z,14.73
2023-12-22T07:12:55.969Z,14.64
2023-12-22T07:15:25.126Z,14.53
2023-12-22T07:17:53.568Z,14.59
2023-12-22T07:20:22.075Z,14.69
2023-12-22T07:22:49.982Z,14.72
2023-12-22T07:25:20.215Z,14.73
2023-12-22T07:27:48.909Z,14.75
2023-12-22T07:30:18.142Z,14.75
2023-12-22T07:32:49.850Z,14.80
2023-12-22T07:35:18.955Z,14.86
2023-12-22T07:37:47.013Z,14.90
2023-12-22T07:40:17.122Z,14.94
2023-12-22T07:42:46.002Z,14.88
2023-12-22T07:45:13.823Z,14.77
2023-12-22T07:47:41.703Z,14.71
2023-12-22T07:50:11.408Z,14.70
2023-12-22T07:52:41.127Z,14.68
2023-12-22T07:55:11.641Z,14.65
2023-12-22T07:57:39.706Z,14.60
2023-12-22T08:00:10.232Z,14.60
2023-12-22T08:02:38.171Z,14.63
2023-12-22T08:05:06.340Z,14.64
2023-12-22T08:07:35.575Z,14.58
2023-12-22T08:10:04.048Z,14.55
2023-12-22T08:12:33.308Z,14.58
2023-12-22T08:15:01.319Z,14.57
2023-12-22T08:17:29.504Z,14.62
2023-12-22T08:22:28.412Z,14.67
2023-12-22T08:25:00.773Z,14.67
2023-12-22T08:27:28.678Z,14.72
2023-12-22T08:29:56.499Z,14.66
2023-12-22T08:32:24.373Z,14.69
2023-12-22T08:34:52.282Z,14.65
2023-12-22T08:37:20.324Z,14.66
2023-12-22T08:39:48.314Z,14.63
2023-12-22T08:42:17.540Z,14.63
2023-12-22T08:44:45.433Z,14.66
2023-12-22T08:47:13.285Z,14.69
2023-12-22T08:49:41.149Z,14.66
2023-12-22T08:52:08.996Z,14.69
2023-12-22T08:54:37.102Z,14.70
2023-12-22T08:57:05.214Z,14.74
2023-12-22T08:59:34.387Z,14.80
2023-12-22T09:02:02.291Z,14.86
2023-12-22T09:04:30.286Z,14.84
2023-12-22T09:06:58.131Z,14.83
2023-12-22T09:09:26.354Z,14.82
2023-12-22T09:11:54.583Z,14.87
2023-12-22T09:14:22.845Z,14.92
2023-12-22T09:16:52.123Z,14.95
2023-12-22T09:19:20.403Z,14.92
2023-12-22T09:21:48.249Z,14.95
2023-12-22T09:24:17.672Z,14.97
2023-12-22T09:26:45.510Z,14.92
2023-12-22T09:29:13.484Z,14.88
2023-12-22T09:31:42.388Z,14.94
2023-12-22T09:34:11.733Z,14.94
2023-12-22T09:36:39.932Z,14.97
2023-12-22T09:39:07.754Z,14.98
2023-12-22T09:41:35.561Z,14.96
2023-12-22T09:44:03.438Z,15.00
2023-12-22T09:46:31.310Z,15.03
2023-12-22T09:48:59.182Z,15.07
2023-12-22T09:51:28.396Z,15.15
2023-12-22T09:53:56.442Z,15.11
2023-12-22T09:56:24.899Z,15.14
2023-12-22T09:58:52.820Z,15.16
2023-12-22T10:01:23.275Z,15.18
2023-12-22T10:03:51.214Z,15.23
2023-12-22T10:06:19.191Z,15.24
2023-12-22T10:08:48.588Z,15.30
2023-12-22T10:11:16.426Z,15.30
2023-12-22T10:13:44.315Z,15.21
2023-12-22T10:16:12.189Z,15.12
2023-12-22T10:18:40.066Z,15.04
2023-12-22T10:21:08.068Z,15.01
2023-12-22T10:23:35.866Z,15.05
2023-12-22T10:26:05.429Z,15.13
2023-12-22T10:28:33.318Z,15.18
2023-12-22T10:31:07.238Z,15.19
2023-12-22T10:33:35.216Z,15.14
2023-12-22T10:36:03.120Z,15.17
2023-12-22T10:38:34.515Z,15.24
2023-12-22T10:41:04.416Z,15.26
2023-12-22T10:43:32.464Z,15.24
2023-12-22T10:46:00.301Z,15.20
2023-12-22T10:48:28.187Z,15.14
2023-12-22T10:50:56.153Z,15.17
2023-12-22T10:53:25.114Z,15.13
2023-12-22T10:55:53.450Z,15.20
2023-12-22T10:58:23.010Z,15.27
2023-12-22T11:00:50.902Z,15.33
2023-12-22T11:03:19.790Z,15.46
2023-12-22T11:05:48.942Z,15.40
2023-12-22T11:08:16.851Z,15.39
2023-12-22T11:10:45.189Z,15.36
2023-12-22T11:13:13.490Z,15.46
2023-12-22T11:15:42.757Z,15.47
2023-12-22T11:18:11.303Z,15.47
2023-12-22T11:20:39.201Z,15.40
2023-12-22T11:23:07.038Z,15.36
2023-12-22T11:25:34.947Z,15.33
2023-12-22T11:28:02.984Z,15.31
2023-12-22T11:30:30.805Z,15.33
2023-12-22T11:33:00.112Z,15.29
2023-12-22T11:35:32.595Z,15.33
2023-12-22T11:38:02.420Z,15.39
2023-12-22T11:40:29.323Z,15.44
2023-12-22T11:42:57.230Z,15.49
2023-12-22T11:45:25.417Z,15.60
2023-12-22T11:47:54.081Z,15.63
2023-12-22T11:50:32.859Z,15.56
2023-12-22T11:53:22.351Z,15.53
2023-12-22T11:56:03.952Z,15.49
2023-12-22T11:58:41.993Z,15.50
2023-12-22T12:01:10.824Z,15.52
2023-12-22T12:03:40.473Z,15.53
2023-12-22T12:06:18.678Z,15.56
2023-12-22T12:08:46.569Z,15.60
2023-12-22T12:11:14.869Z,15.57
2023-12-22T12:13:46.030Z,15.61
2023-12-22T12:16:13.909Z,15.65
2023-12-22T12:18:42.018Z,15.61
2023-12-22T12:21:10.501Z,15.61
2023-12-22T12:23:39.875Z,15.75
2023-12-22T12:26:08.485Z,15.85
2023-12-22T12:28:37.785Z,15.81
2023-12-22T12:31:06.714Z,15.77
2023-12-22T12:33:34.678Z,15.77
2023-12-22T12:36:05.597Z,15.75
2023-12-22T12:38:45.439Z,15.75
2023-12-22T12:41:13.907Z,15.68
2023-12-22T12:43:43.656Z,15.70
2023-12-22T12:46:11.761Z,15.67
2023-12-22T12:48:40.084Z,15.69
2023-12-22T12:51:08.297Z,15.71
2023-12-22T12:53:36.221Z,15.64
2023-12-22T12:56:06.649Z,15.70
2023-12-22T12:58:34.635Z,15.75
2023-12-22T13:01:09.868Z,15.74
2023-12-22T13:03:55.630Z,15.70
2023-12-22T13:06:23.576Z,15.65
2023-12-22T13:08:51.932Z,15.65
2023-12-22T13:11:24.415Z,15.72
2023-12-22T13:13:52.705Z,15.70
2023-12-22T13:16:20.922Z,15.73
2023-12-22T13:18:48.956Z,15.73
2023-12-22T13:21:16.795Z,15.66
2023-12-22T13:23:44.629Z,15.67
2023-12-22T13:26:20.345Z,15.60
2023-12-22T13:28:49.649Z,15.57
2023-12-22T13:31:19.383Z,15.55
2023-12-22T13:33:47.391Z,15.61
2023-12-22T13:36:15.325Z,15.65
2023-12-22T13:38:47.965Z,15.66
2023-12-22T13:41:15.765Z,15.71
2023-12-22T13:43:45.484Z,15.69
2023-12-22T13:46:15.411Z,15.68
2023-12-22T13:48:43.380Z,15.71
2023-12-22T13:51:11.224Z,15.75
2023-12-22T13:53:48.994Z,15.75
2023-12-22T13:56:16.884Z,15.77
2023-12-22T13:58:48.040Z,15.80
2023-12-22T14:01:17.593Z,15.84
2023-12-22T14:03:45.686Z,15.86
2023-12-22T14:06:13.904Z,15.80
2023-12-22T14:08:42.740Z,15.73
2023-12-22T14:11:10.706Z,15.75
2023-12-22T14:13:41.492Z,15.78
2023-12-22T14:16:09.351Z,15.77
2023-12-22T14:18:38.638Z,15.80
2023-12-22T14:21:06.641Z,15.82
2023-12-22T14:23:34.484Z,15.82
2023-12-22T14:26:02.719Z,15.86
2023-12-22T14:28:30.758Z,15.84
2023-12-22T14:30:58.717Z,15.86
2023-12-22T14:33:27.079Z,15.90
2023-12-22T14:35:56.325Z,15.91
2023-12-22T14:38:24.320Z,15.95
2023-12-22T14:40:52.296Z,15.94
2023-12-22T14:43:20.105Z,15.96
2023-12-22T14:45:47.905Z,15.94
2023-12-22T14:48:15.921Z,15.95
2023-12-22T14:50:43.787Z,15.99
2023-12-22T14:53:13.939Z,16.02
2023-12-22T14:55:42.085Z,16.03
2023-12-22T14:58:11.328Z,16.07
2023-12-22T15:00:39.160Z,16.11
2023-12-22T15:03:07.649Z,16.09
2023-12-22T15:05:37.491Z,16.07
2023-12-22T15:08:08.406Z,16.08
2023-12-22T15:10:38.080Z,16.11
2023-12-22T15:13:06.062Z,16.12
2023-12-22T15:15:33.874Z,16.12
2023-12-22T15:18:01.731Z,16.13
2023-12-22T15:20:30.143Z,16.13
2023-12-22T15:22:58.030Z,16.15
2023-12-22T15:25:26.042Z,16.17
2023-12-22T15:27:55.284Z,16.09
2023-12-22T15:30:23.116Z,15.98
2023-12-22T15:32:51.944Z,15.95
2023-12-22T15:35:20.648Z,15.90
2023-12-22T15:37:48.619Z,15.87
2023-12-22T15:40:16.574Z,15.85
2023-12-22T15:42:44.385Z,15.85
2023-12-22T15:45:13.856Z,15.89
2023-12-22T15:47:42.424Z,15.93
2023-12-22T15:50:11.473Z,15.94
2023-12-22T15:52:39.362Z,15.96
2023-12-22T15:55:07.792Z,15.99
2023-12-22T15:57:35.617Z,16.01
2023-12-22T16:00:03.898Z,16.00
2023-12-22T16:02:34.809Z,16.00
2023-12-22T16:05:02.683Z,16.07
2023-12-22T16:07:31.895Z,16.12
2023-12-22T16:10:01.315Z,16.14
2023-12-22T16:12:29.144Z,16.15
2023-12-22T16:14:57.017Z,16.17
2023-12-22T16:17:24.830Z,16.19
2023-12-22T16:19:54.108Z,16.18
2023-12-22T16:22:21.948Z,16.16
2023-12-22T16:24:49.794Z,16.15
2023-12-22T16:27:18.364Z,16.17
2023-12-22T16:29:47.944Z,16.22
2023-12-22T16:32:16.930Z,16.22
2023-12-22T16:34:45.508Z,16.12
2023-12-22T16:37:15.198Z,16.00
2023-12-22T16:39:50.475Z,15.94
2023-12-22T16:42:19.027Z,15.89
2023-12-22T16:44:46.907Z,15.89
2023-12-22T16:47:14.739Z,15.92
2023-12-22T16:49:43.891Z,15.90
2023-12-22T16:52:11.811Z,15.87
2023-12-22T16:54:41.621Z,15.83
2023-12-22T16:57:09.904Z,15.81
2023-12-22T16:59:37.726Z,15.84
2023-12-22T17:02:20.578Z,15.82
2023-12-22T17:04:54.371Z,15.80
2023-12-22T17:07:22.528Z,15.77
2023-12-22T17:09:51.922Z,15.76
2023-12-22T17:12:19.944Z,15.85
2023-12-22T17:14:47.810Z,15.87
2023-12-22T17:17:16.118Z,15.85
2023-12-22T17:19:44.036Z,15.80
2023-12-22T17:22:11.873Z,15.77
2023-12-22T17:24:44.083Z,15.77
2023-12-22T17:27:13.927Z,15.79
2023-12-22T17:29:42.266Z,15.77
2023-12-22T17:32:11.512Z,15.80
2023-12-22T17:34:39.606Z,15.85
2023-12-22T17:37:07.441Z,15.87
2023-12-22T17:39:35.723Z,15.85
2023-12-22T17:42:03.790Z,15.84
2023-12-22T17:44:32.938Z,15.86
2023-12-22T17:47:04.357Z,15.88
2023-12-22T17:49:32.996Z,15.87
2023-12-22T17:52:01.117Z,15.90
2023-12-22T17:54:29.030Z,15.88
2023-12-22T17:56:56.831Z,15.83
2023-12-22T17:59:24.734Z,15.80
2023-12-22T18:01:55.158Z,15.77
2023-12-22T18:04:23.157Z,15.76
2023-12-22T18:06:50.943Z,15.76
2023-12-22T18:09:18.736Z,15.78
2023-12-22T18:11:47.666Z,15.80
2023-12-22T18:14:15.603Z,15.77
2023-12-22T18:16:43.919Z,15.73
2023-12-22T18:19:13.330Z,15.77
2023-12-22T18:21:41.206Z,15.77
2023-12-22T18:24:09.189Z,15.79
2023-12-22T18:26:37.190Z,15.77
2023-12-22T18:29:05.088Z,15.78
2023-12-22T18:31:32.982Z,15.73
2023-12-22T18:34:00.836Z,15.66
2023-12-22T18:36:30.037Z,15.64
2023-12-22T18:38:59.758Z,15.58
2023-12-22T18:41:27.647Z,15.51
2023-12-22T18:43:55.541Z,15.47
2023-12-22T18:46:23.335Z,15.44
2023-12-22T18:48:51.149Z,15.40
2023-12-22T18:51:24.179Z,15.43
2023-12-22T18:53:53.377Z,15.48
2023-12-22T18:56:22.383Z,15.44
2023-12-22T18:58:50.687Z,15.44
2023-12-22T19:01:26.463Z,15.47
2023-12-22T19:04:03.553Z,15.45
2023-12-22T19:06:31.483Z,15.43
2023-12-22T19:09:00.673Z,15.40
2023-12-22T19:11:28.496Z,15.42
2023-12-22T19:13:57.186Z,15.43
2023-12-22T19:16:25.060Z,15.48
2023-12-22T19:18:52.899Z,15.51
2023-12-22T19:21:20.717Z,15.50
2023-12-22T19:23:48.537Z,15.43
2023-12-22T19:26:18.385Z,15.41
2023-12-22T19:28:46.218Z,15.47
2023-12-22T19:31:14.141Z,15.44
2023-12-22T19:33:42.117Z,15.43
2023-12-22T19:36:11.474Z,15.44
2023-12-22T19:38:39.279Z,15.40
2023-12-22T19:41:07.114Z,15.33
2023-12-22T19:43:36.621Z,15.30
2023-12-22T19:46:04.589Z,15.33
2023-12-22T19:48:32.426Z,15.32
2023-12-22T19:51:00.305Z,15.31
2023-12-22T19:53:28.155Z,15.26
2023-12-22T19:55:55.986Z,15.18
2023-12-22T19:58:23.810Z,15.14
2023-12-22T20:00:53.023Z,15.17
2023-12-22T20:03:23.146Z,15.23
2023-12-22T20:05:51.074Z,15.21
2023-12-22T20:08:19.104Z,15.17
2023-12-22T20:10:47.291Z,15.16
2023-12-22T20:13:16.363Z,15.23
2023-12-22T20:15:44.416Z,15.28
2023-12-22T20:18:13.884Z,15.27
2023-12-22T20:20:42.017Z,15.32
2023-12-22T20:23:09.892Z,15.38
2023-12-22T20:25:37.869Z,15.46
2023-12-22T20:28:06.252Z,15.44
2023-12-22T20:30:34.255Z,15.44
2023-12-22T20:33:02.158Z,15.39
2023-12-22T20:35:31.385Z,15.32
2023-12-22T20:37:59.284Z,15.29
2023-12-22T20:40:27.194Z,15.28
2023-12-22T20:42:55.002Z,15.28
2023-12-22T20:45:22.874Z,15.30
2023-12-22T20:47:51.003Z,15.34
2023-12-22T20:50:19.043Z,15.34
2023-12-22T20:52:51.717Z,15.31
2023-12-22T20:55:19.906Z,15.33
2023-12-22T20:57:49.552Z,15.39
2023-12-22T21:00:18.033Z,15.45
2023-12-22T21:02:45.856Z,15.50
2023-12-22T21:05:13.982Z,15.52
2023-12-22T21:07:42.032Z,15.54
2023-12-22T21:10:12.775Z,15.58
2023-12-22T21:12:40.992Z,15.56
2023-12-22T21:15:10.713Z,15.57
2023-12-22T21:17:38.848Z,15.55
2023-12-22T21:20:07.664Z,15.53
2023-12-22T21:22:35.537Z,15.50
2023-12-22T21:25:03.431Z,15.52
2023-12-22T21:27:32.597Z,15.54
2023-12-22T21:30:00.515Z,15.54
2023-12-22T21:32:29.133Z,15.49
2023-12-22T21:34:57.095Z,15.44
2023-12-22T21:37:26.208Z,15.36
2023-12-22T21:39:54.505Z,15.32
2023-12-22T21:42:22.304Z,15.32
2023-12-22T21:44:51.937Z,15.33
2023-12-22T21:47:19.873Z,15.34
2023-12-22T21:49:47.840Z,15.34
2023-12-22T21:52:16.723Z,15.33
2023-12-22T21:54:45.821Z,15.34
2023-12-22T21:57:13.660Z,15.30
2023-12-22T21:59:43.331Z,15.30
2023-12-22T22:02:12.661Z,15.30
2023-12-22T22:04:41.500Z,15.25
2023-12-22T22:07:09.377Z,15.26
2023-12-22T22:09:37.279Z,15.26
2023-12-22T22:12:05.557Z,15.24
2023-12-22T22:14:33.414Z,15.21
2023-12-22T22:17:01.312Z,15.17
2023-12-22T22:19:30.524Z,15.16
2023-12-22T22:21:58.372Z,15.11
2023-12-22T22:24:26.350Z,15.14
2023-12-22T22:26:54.169Z,15.17
2023-12-22T22:29:22.021Z,15.20
2023-12-22T22:31:49.908Z,15.20
2023-12-22T22:34:17.741Z,15.23
2023-12-22T22:36:46.982Z,15.22
2023-12-22T22:39:15.002Z,15.25
2023-12-22T22:41:43.370Z,15.27
2023-12-22T22:44:11.275Z,15.27
2023-12-22T22:46:39.189Z,15.22
2023-12-22T22:49:07.198Z,15.26
2023-12-22T22:51:35.096Z,15.24
2023-12-22T22:54:05.687Z,15.24
2023-12-22T22:56:33.924Z,15.22
2023-12-22T22:59:01.802Z,15.24
2023-12-22T23:01:29.668Z,15.17
2023-12-22T23:04:01.185Z,15.17
2023-12-22T23:06:29.898Z,15.14
2023-12-22T23:09:00.736Z,15.12
2023-12-22T23:11:29.932Z,15.04
2023-12-22T23:13:57.822Z,15.04
2023-12-22T23:16:25.702Z,15.04
2023-12-22T23:18:54.127Z,15.03
2023-12-22T23:21:22.183Z,15.04
2023-12-22T23:23:50.016Z,15.01
2023-12-22T23:26:17.912Z,15.03
2023-12-22T23:28:47.412Z,15.07
2023-12-22T23:31:15.407Z,15.00
2023-12-22T23:33:43.258Z,14.99
2023-12-22T23:36:18.609Z,15.02
2023-12-22T23:38:52.926Z,15.02
2023-12-22T23:41:21.024Z,14.96
2023-12-22T23:43:50.274Z,14.90
2023-12-22T23:46:18.173Z,14.97
2023-12-22T23:48:46.162Z,14.99
2023-12-22T23:51:14.789Z,15.02
2023-12-22T23:53:42.646Z,15.06
2023-12-22T23:56:11.015Z,15.08
2023-12-22T23:58:38.966Z,15.09
